createdAt,value
2018-08-13T00:00:50.379Z,94772.97
2018-08-13T00:15:51.754Z,94777.94
2018-08-13T00:30:51.942Z,94781.50
2018-08-13T00:45:51.196Z,94783.56
2018-08-13T01:00:51.256Z,94786.98
2018-08-13T01:15:50.686Z,94781.17
2018-08-13T01:30:50.096Z,94764.99
2018-08-13T01:45:50.045Z,94760.35
2018-08-13T02:15:51.513Z,94756.83
2018-08-13T02:30:50.495Z,94755.05
2018-08-13T02:45:50.415Z,94766.76
2018-08-13T03:00:50.441Z,94774.53
2018-08-13T03:15:50.935Z,94773.78
2018-08-13T03:30:51.396Z,94778.87
2018-08-13T03:45:50.859Z,94784.95
2018-08-13T04:00:51.273Z,94781.59
2018-08-13T04:15:50.444Z,94778.64
2018-08-13T04:30:52.388Z,94780.82
2018-08-13T04:45:50.405Z,94778.77
2018-08-13T05:00:53.285Z,94781.48
2018-08-13T05:15:50.827Z,94786.17
2018-08-13T05:30:50.951Z,94793.35
2018-08-13T05:45:51.005Z,94790.64
2018-08-13T06:00:50.791Z,94780.81
2018-08-13T06:15:56.718Z,94764.64
2018-08-13T06:30:53.121Z,94760.06
2018-08-13T06:45:51.076Z,94752.55
2018-08-13T07:00:51.144Z,94756.22
2018-08-13T07:15:52.625Z,94741.95
2018-08-13T07:30:50.619Z,94749.44
2018-08-13T07:45:50.638Z,94738.38
2018-08-13T08:00:49.920Z,94746.55
2018-08-13T08:15:51.004Z,94744.59
2018-08-13T08:30:52.875Z,94726.94
2018-08-13T08:45:53.001Z,94718.92
2018-08-13T09:00:50.806Z,94696.91
2018-08-13T09:15:51.746Z,94688.33
2018-08-13T09:45:52.274Z,94672.05
2018-08-13T10:00:55.348Z,94657.51
2018-08-13T10:15:50.848Z,94644.86
2018-08-13T10:30:50.622Z,94638.56
2018-08-13T10:45:51.519Z,94624.31
2018-08-13T11:00:50.154Z,94610.60
2018-08-13T11:15:51.032Z,94583.96
2018-08-13T11:30:51.172Z,94583.75
2018-08-13T11:45:51.014Z,94574.35
2018-08-13T12:00:50.975Z,94557.95
2018-08-13T12:15:50.410Z,94552.11
2018-08-13T12:30:50.882Z,94544.97
2018-08-13T12:45:50.344Z,94525.61
2018-08-13T13:00:58.272Z,94516.59
2018-08-13T13:15:52.772Z,94500.45
2018-08-13T13:30:50.756Z,94500.83
2018-08-13T13:45:50.732Z,94480.39
2018-08-13T14:00:50.751Z,94471.48
2018-08-13T14:15:50.277Z,94457.78
2018-08-13T14:30:53.208Z,94447.53
2018-08-13T14:45:51.139Z,94448.62
2018-08-13T15:00:51.190Z,94430.53
2018-08-13T15:15:50.604Z,94423.95
2018-08-13T15:30:57.767Z,94421.80
2018-08-13T15:45:50.484Z,94412.88
2018-08-13T16:00:50.488Z,94404.08
2018-08-13T16:15:50.969Z,94393.80
2018-08-13T16:30:50.924Z,94386.83
2018-08-13T16:45:50.913Z,94399.55
2018-08-13T17:00:50.841Z,94396.13
2018-08-13T17:15:50.375Z,94394.88
2018-08-13T17:30:52.371Z,94402.81
2018-08-13T17:45:50.203Z,94413.78
2018-08-13T18:00:50.275Z,94424.73
2018-08-13T18:15:50.495Z,94427.48
2018-08-13T18:30:50.461Z,94435.67
2018-08-13T18:45:49.974Z,94445.34
2018-08-13T19:00:53.820Z,94437.45
2018-08-13T19:15:51.065Z,94430.08
2018-08-13T19:30:50.926Z,94426.45
2018-08-13T19:45:51.576Z,94435.80
2018-08-13T20:00:52.651Z,94448.14
2018-08-13T20:15:54.013Z,94453.27
2018-08-13T20:45:51.248Z,94484.80
2018-08-13T21:00:53.533Z,94481.23
2018-08-13T21:15:51.241Z,94492.16
2018-08-13T21:30:50.739Z,94501.38
2018-08-13T22:00:55.969Z,94513.65
2018-08-13T22:15:51.091Z,94509.22
2018-08-13T22:30:51.606Z,94521.31
2018-08-13T22:45:51.551Z,94526.87
2018-08-13T23:00:51.114Z,94518.23
2018-08-13T23:15:50.454Z,94520.30
2018-08-13T23:30:49.426Z,94519.32
2018-08-13T23:45:50.524Z,94510.70
